Time;durP1;ratioP1;P1;durP2;ratioP2;P2;SDS_P1;SDS_P2;PMS_P1;PMS_P2;Temp;Humidity;BMP_temperature;BMP_pressure;BME280_temperature;BME280_humidity;BME280_pressure;Samples;Min_cycle;Max_cycle;Signal;HPM_P1;HPM_P2
2024/01/12 00:01:15;;;;;;;15.50;6.37;;;0.10;1.00;;;;;;10403549;28;20567;-80
2024/01/12 00:06:39;;;;;;;10.57;4.40;;;0.10;1.00;;;;;;10408211;28;20266;-83
2024/01/12 00:12:00;;;;;;;11.73;4.33;;;0.00;1.00;;;;;;10407890;28;20201;-80
2024/01/12 00:17:22;;;;;;;12.57;5.53;;;0.10;1.00;;;;;;10435610;28;20253;-80
2024/01/12 00:22:44;;;;;;;15.30;7.30;;;0.00;1.00;;;;;;10435111;28;20428;-80
2024/01/12 00:28:05;;;;;;;18.37;7.40;;;0.00;1.00;;;;;;10407485;28;20209;-81
2024/01/12 00:33:26;;;;;;;16.73;7.67;;;-0.10;1.00;;;;;;10400458;28;20415;-81
2024/01/12 00:38:48;;;;;;;21.80;8.77;;;-0.10;1.00;;;;;;10380211;28;20390;-80
2024/01/12 00:44:10;;;;;;;20.20;7.67;;;-0.10;1.00;;;;;;10393963;28;20268;-80
2024/01/12 00:49:32;;;;;;;13.07;6.23;;;-0.10;1.00;;;;;;10408059;28;20199;-81
2024/01/12 00:54:53;;;;;;;14.63;6.17;;;-0.10;1.00;;;;;;10397999;28;20271;-79
2024/01/12 01:00:14;;;;;;;12.67;4.73;;;-0.10;1.00;;;;;;10402594;28;20455;-80
2024/01/12 01:05:36;;;;;;;10.63;4.50;;;0.00;1.00;;;;;;10418198;28;20243;-83
2024/01/12 01:10:57;;;;;;;11.30;4.27;;;0.10;1.00;;;;;;10414627;28;20376;-83
2024/01/12 01:16:20;;;;;;;9.97;4.17;;;0.10;1.00;;;;;;10442458;28;20214;-80
2024/01/12 01:21:44;;;;;;;9.77;4.20;;;0.20;1.00;;;;;;10441658;28;20198;-81
2024/01/12 01:27:07;;;;;;;8.80;3.57;;;0.10;1.00;;;;;;10441812;28;20218;-83
2024/01/12 01:32:28;;;;;;;11.30;4.77;;;0.10;1.00;;;;;;10412641;28;20254;-80
2024/01/12 01:37:50;;;;;;;23.57;9.10;;;0.20;1.00;;;;;;10372420;28;20209;-82
2024/01/12 01:43:11;;;;;;;18.43;7.13;;;0.20;1.00;;;;;;10400021;28;20188;-82
2024/01/12 01:48:33;;;;;;;18.40;6.03;;;0.20;1.00;;;;;;10385764;28;20207;-81
2024/01/12 01:53:54;;;;;;;11.10;3.60;;;0.30;1.00;;;;;;10399517;28;20192;-80
2024/01/12 01:59:16;;;;;;;9.27;2.63;;;0.40;1.00;;;;;;10419242;28;20251;-80
2024/01/12 02:04:37;;;;;;;7.40;2.87;;;0.20;1.00;;;;;;10403457;28;20254;-80
2024/01/12 02:10:01;;;;;;;8.60;3.07;;;0.30;1.00;;;;;;10421339;28;20236;-85
2024/01/12 02:15:22;;;;;;;9.93;2.93;;;0.30;1.00;;;;;;10393285;28;20224;-84
2024/01/12 02:20:47;;;;;;;6.57;2.50;;;0.30;1.00;;;;;;10411043;28;20211;-84
2024/01/12 02:26:09;;;;;;;9.33;2.10;;;0.30;1.00;;;;;;10396847;28;20300;-80
2024/01/12 02:31:31;;;;;;;5.37;2.60;;;0.30;1.00;;;;;;10398033;28;20215;-80
2024/01/12 02:36:52;;;;;;;5.40;2.63;;;0.30;1.00;;;;;;10383928;28;20207;-81
2024/01/12 02:42:13;;;;;;;8.57;2.13;;;0.30;1.00;;;;;;10428198;28;20187;-81
2024/01/12 02:47:34;;;;;;;3.33;2.20;;;0.30;1.00;;;;;;10438572;28;20228;-83
2024/01/12 02:52:55;;;;;;;5.50;2.10;;;0.30;1.00;;;;;;10403183;28;20201;-83
2024/01/12 02:58:16;;;;;;;6.57;1.97;;;0.30;1.00;;;;;;10426682;28;20399;-83
2024/01/12 03:03:38;;;;;;;7.57;1.93;;;0.30;1.00;;;;;;10437736;28;20221;-81
2024/01/12 03:08:59;;;;;;;4.97;2.10;;;0.30;1.00;;;;;;10395374;28;20242;-80
2024/01/12 03:14:20;;;;;;;4.03;2.20;;;0.20;1.00;;;;;;10423499;28;20199;-80
2024/01/12 03:19:42;;;;;;;5.03;2.03;;;0.20;1.00;;;;;;10408462;28;20450;-82
2024/01/12 03:25:04;;;;;;;5.43;2.10;;;0.10;1.00;;;;;;10408586;28;20243;-84
2024/01/12 03:30:26;;;;;;;4.43;2.20;;;0.20;1.00;;;;;;10390064;28;20203;-85
2024/01/12 03:35:48;;;;;;;4.63;1.83;;;0.20;1.00;;;;;;10397367;28;20446;-83
2024/01/12 03:41:09;;;;;;;3.50;2.07;;;0.10;1.00;;;;;;10410807;28;20187;-80
2024/01/12 03:46:31;;;;;;;7.03;2.27;;;0.10;1.00;;;;;;10408809;28;20231;-80
2024/01/12 03:51:55;;;;;;;5.87;2.50;;;0.10;1.00;;;;;;10387419;28;20287;-80
2024/01/12 03:57:17;;;;;;;9.53;3.80;;;0.00;1.00;;;;;;10418629;28;20199;-80
2024/01/12 04:02:38;;;;;;;7.00;2.67;;;0.10;1.00;;;;;;10436003;28;20459;-83
2024/01/12 04:07:59;;;;;;;4.17;2.43;;;0.10;1.00;;;;;;10408016;28;20454;-81
2024/01/12 04:13:20;;;;;;;4.07;1.70;;;0.00;1.00;;;;;;10408448;28;20196;-81
2024/01/12 04:18:42;;;;;;;7.63;2.07;;;0.10;1.00;;;;;;10395896;28;20203;-80
2024/01/12 04:24:03;;;;;;;4.17;1.97;;;0.10;1.00;;;;;;10484433;28;20225;-82
2024/01/12 04:29:24;;;;;;;5.97;1.97;;;0.00;1.00;;;;;;10423519;28;20203;-84
2024/01/12 04:34:46;;;;;;;3.50;1.70;;;0.20;1.00;;;;;;10426835;28;20529;-84
2024/01/12 04:40:08;;;;;;;4.60;1.90;;;0.20;1.00;;;;;;10429909;28;20417;-81
2024/01/12 04:45:31;;;;;;;2.17;1.30;;;0.20;1.00;;;;;;10428953;28;20305;-81
2024/01/12 04:50:53;;;;;;;5.47;2.27;;;0.10;1.00;;;;;;10453077;28;20198;-84
2024/01/12 04:56:16;;;;;;;4.33;2.50;;;0.10;1.00;;;;;;10470342;28;20195;-83
2024/01/12 05:01:37;;;;;;;6.97;3.20;;;0.10;1.00;;;;;;10428494;28;20235;-83
2024/01/12 05:06:58;;;;;;;7.90;3.43;;;0.10;1.00;;;;;;10437936;28;20229;-83
2024/01/12 05:12:19;;;;;;;7.80;3.17;;;0.20;1.00;;;;;;10428142;28;20209;-83
2024/01/12 05:17:40;;;;;;;9.30;3.00;;;0.10;1.00;;;;;;10442019;28;20199;-82
2024/01/12 05:23:03;;;;;;;6.37;2.70;;;0.20;1.00;;;;;;10468565;28;20202;-83
2024/01/12 05:28:26;;;;;;;6.67;2.57;;;0.20;1.00;;;;;;10451511;28;20410;-83
2024/01/12 05:33:47;;;;;;;6.30;2.10;;;0.20;1.00;;;;;;10441829;28;20195;-80
2024/01/12 05:39:09;;;;;;;9.60;2.27;;;0.20;1.00;;;;;;10441277;28;20198;-84
2024/01/12 05:44:32;;;;;;;8.97;2.67;;;0.10;1.00;;;;;;10426057;28;20231;-80
2024/01/12 05:49:53;;;;;;;2.43;1.60;;;0.10;1.00;;;;;;10435048;28;20501;-82
2024/01/12 05:55:14;;;;;;;5.20;2.00;;;0.10;1.00;;;;;;10392371;28;20201;-82
2024/01/12 06:00:36;;;;;;;5.87;2.40;;;0.10;1.00;;;;;;10440320;28;20584;-81
2024/01/12 06:05:57;;;;;;;6.83;1.90;;;0.10;1.00;;;;;;10412122;28;20224;-84
2024/01/12 06:11:19;;;;;;;7.60;2.67;;;0.10;1.00;;;;;;10412467;28;20193;-82
2024/01/12 06:16:40;;;;;;;7.23;2.90;;;0.10;1.00;;;;;;10439955;28;20207;-84
2024/01/12 06:22:01;;;;;;;10.83;3.97;;;0.10;1.00;;;;;;10416071;28;20208;-80
2024/01/12 06:27:22;;;;;;;7.77;3.27;;;0.10;1.00;;;;;;10392623;28;20242;-80
2024/01/12 06:32:44;;;;;;;15.23;4.03;;;0.30;1.00;;;;;;10424533;28;20193;-81
2024/01/12 06:38:05;;;;;;;9.97;3.70;;;0.30;1.00;;;;;;10438180;28;20232;-80
2024/01/12 06:43:28;;;;;;;9.03;4.10;;;0.20;1.00;;;;;;10410477;28;20205;-81
2024/01/12 06:48:49;;;;;;;8.20;3.37;;;0.10;1.00;;;;;;10423291;28;20281;-83
2024/01/12 06:54:12;;;;;;;11.00;3.80;;;0.10;1.00;;;;;;10402452;28;20277;-83
2024/01/12 06:59:35;;;;;;;10.07;3.97;;;0.10;1.00;;;;;;10369442;28;20540;-82
2024/01/12 07:04:57;;;;;;;14.10;4.90;;;0.10;1.00;;;;;;10425653;28;20227;-80
2024/01/12 07:10:18;;;;;;;14.10;5.00;;;0.10;1.00;;;;;;10420196;28;20435;-83
2024/01/12 07:15:40;;;;;;;13.20;6.07;;;0.10;1.00;;;;;;10411692;28;20204;-83
2024/01/12 07:21:03;;;;;;;9.47;3.80;;;0.10;1.00;;;;;;10404590;28;20217;-80
2024/01/12 07:26:26;;;;;;;9.70;3.83;;;0.30;1.00;;;;;;10396620;28;20504;-84
2024/01/12 07:31:48;;;;;;;8.33;3.70;;;0.20;1.00;;;;;;10423655;28;20416;-82
2024/01/12 07:37:10;;;;;;;8.83;3.33;;;0.30;1.00;;;;;;10408779;28;20619;-82
2024/01/12 07:42:31;;;;;;;8.03;3.27;;;0.40;1.00;;;;;;10397885;28;20190;-83
2024/01/12 07:47:53;;;;;;;6.50;2.67;;;0.40;1.00;;;;;;10420304;28;20389;-79
2024/01/12 07:53:14;;;;;;;6.77;2.27;;;0.50;1.00;;;;;;10463650;28;20207;-84
2024/01/12 07:58:36;;;;;;;6.47;2.70;;;0.40;1.00;;;;;;10388519;28;20251;-85
2024/01/12 08:03:57;;;;;;;8.93;3.97;;;0.40;1.00;;;;;;10396100;28;20208;-84
2024/01/12 08:09:18;;;;;;;11.13;4.27;;;0.60;1.00;;;;;;10423816;28;20209;-80
2024/01/12 08:14:40;;;;;;;11.10;4.70;;;0.70;1.00;;;;;;10440579;28;20194;-84
2024/01/12 08:20:01;;;;;;;8.50;3.70;;;0.80;1.00;;;;;;10463683;28;20216;-86
2024/01/12 08:25:24;;;;;;;14.33;4.90;;;0.80;99.90;;;;;;10464481;28;20290;-80
2024/01/12 08:30:45;;;;;;;11.03;4.47;;;0.70;1.00;;;;;;10390810;28;20250;-84
2024/01/12 08:36:07;;;;;;;13.63;5.20;;;0.90;1.00;;;;;;10413606;28;20207;-84
2024/01/12 08:41:28;;;;;;;11.03;4.20;;;0.80;1.00;;;;;;10384649;28;20204;-79
2024/01/12 08:46:52;;;;;;;12.20;4.67;;;0.80;1.00;;;;;;10414331;28;20259;-78
2024/01/12 08:52:14;;;;;;;16.53;5.07;;;0.80;1.00;;;;;;10415339;28;20198;-83
2024/01/12 08:57:35;;;;;;;8.97;4.00;;;0.90;1.00;;;;;;10400182;28;20259;-83
2024/01/12 09:02:57;;;;;;;10.20;2.97;;;1.00;1.00;;;;;;10412340;28;20247;-81
2024/01/12 09:08:18;;;;;;;10.10;3.40;;;1.00;1.00;;;;;;10385786;28;20408;-85
2024/01/12 09:13:40;;;;;;;13.67;3.30;;;0.90;1.00;;;;;;10429653;28;20207;-78
2024/01/12 09:19:02;;;;;;;10.70;4.40;;;1.10;1.00;;;;;;10449649;28;20197;-82
2024/01/12 09:24:24;;;;;;;8.03;3.13;;;1.00;1.00;;;;;;10437204;28;20244;-80
2024/01/12 09:29:46;;;;;;;8.23;3.33;;;1.00;92.30;;;;;;10418158;28;20529;-83
2024/01/12 09:35:08;;;;;;;6.30;3.10;;;1.00;99.90;;;;;;10421748;28;20264;-84
2024/01/12 09:40:29;;;;;;;6.50;3.20;;;1.10;68.10;;;;;;10407844;28;20191;-83
2024/01/12 09:45:51;;;;;;;8.67;3.20;;;1.10;99.90;;;;;;10424573;28;20232;-88
2024/01/12 09:51:16;;;;;;;6.10;2.50;;;1.10;99.90;;;;;;10402948;28;20206;-82
2024/01/12 09:56:38;;;;;;;6.47;3.17;;;1.20;1.00;;;;;;10415997;28;20206;-82
2024/01/12 10:02:03;;;;;;;10.80;5.43;;;1.30;1.00;;;;;;10400061;28;20530;-83
2024/01/12 10:07:25;;;;;;;7.43;3.37;;;1.30;99.90;;;;;;10402671;28;20246;-81
2024/01/12 10:12:51;;;;;;;5.97;3.30;;;1.50;99.90;;;;;;10393588;28;20200;-76
2024/01/12 10:18:12;;;;;;;7.27;2.47;;;1.60;1.00;;;;;;10431457;28;20262;-80
2024/01/12 10:23:35;;;;;;;5.03;2.30;;;1.80;99.90;;;;;;10451638;28;20499;-76
2024/01/12 10:29:01;;;;;;;4.17;1.97;;;1.90;1.00;;;;;;10440871;28;20250;-80
2024/01/12 10:34:24;;;;;;;5.60;2.17;;;1.90;1.00;;;;;;10433338;28;20205;-79
2024/01/12 10:39:48;;;;;;;6.70;2.57;;;1.80;1.00;;;;;;10433899;28;20389;-82
2024/01/12 10:45:13;;;;;;;5.10;1.87;;;1.90;99.90;;;;;;10400119;28;20217;-81
2024/01/12 10:50:40;;;;;;;6.13;2.50;;;2.00;1.00;;;;;;10392627;28;20208;-84
2024/01/12 10:56:03;;;;;;;5.83;2.00;;;2.10;1.00;;;;;;10417040;28;20191;-81
2024/01/12 11:01:25;;;;;;;10.03;3.10;;;2.20;1.00;;;;;;10418427;28;20252;-81
2024/01/12 11:06:55;;;;;;;8.80;2.33;;;2.30;99.90;;;;;;10418309;28;20274;-78
2024/01/12 11:12:29;;;;;;;7.50;3.13;;;2.30;1.00;;;;;;10417472;28;20269;-77
2024/01/12 11:17:50;;;;;;;8.17;2.53;;;2.40;99.90;;;;;;10431117;28;20216;-78
2024/01/12 11:23:11;;;;;;;7.00;3.13;;;2.40;99.90;;;;;;10432792;28;20199;-78
2024/01/12 11:28:37;;;;;;;7.40;3.10;;;2.40;1.00;;;;;;10416630;28;20262;-78
2024/01/12 11:34:03;;;;;;;9.23;3.57;;;2.40;99.90;;;;;;10432019;28;20227;-77
2024/01/12 11:39:24;;;;;;;4.30;3.00;;;2.30;1.00;;;;;;10432096;28;20203;-77
2024/01/12 11:44:46;;;;;;;6.37;3.13;;;2.40;1.00;;;;;;10426176;28;20309;-79
2024/01/12 11:50:09;;;;;;;7.63;4.13;;;2.50;1.00;;;;;;10417378;28;20227;-78
2024/01/12 11:55:32;;;;;;;7.23;3.23;;;2.50;1.00;;;;;;10430157;28;20255;-78
2024/01/12 12:00:53;;;;;;;5.93;3.50;;;2.50;1.00;;;;;;10430906;28;20236;-78
2024/01/12 12:06:16;;;;;;;4.60;3.00;;;2.50;1.00;;;;;;10424246;28;20238;-79
2024/01/12 12:11:39;;;;;;;6.97;3.53;;;2.60;1.00;;;;;;10389206;28;20209;-77
2024/01/12 12:17:00;;;;;;;7.40;3.90;;;2.60;1.00;;;;;;10391691;28;20211;-78
2024/01/12 12:22:22;;;;;;;8.00;5.00;;;2.50;1.00;;;;;;10425694;28;20391;-77
2024/01/12 12:27:49;;;;;;;9.83;4.80;;;2.40;1.00;;;;;;10410727;28;20248;-79
2024/01/12 12:33:11;;;;;;;16.10;8.13;;;2.40;1.20;;;;;;10429557;28;20323;-78
2024/01/12 12:38:35;;;;;;;8.40;4.97;;;2.40;1.00;;;;;;10430332;28;20499;-79
2024/01/12 12:43:57;;;;;;;11.63;5.30;;;2.40;1.00;;;;;;10416311;28;20209;-80
2024/01/12 12:49:18;;;;;;;6.67;4.60;;;2.40;1.00;;;;;;10416935;28;20533;-79
2024/01/12 12:54:40;;;;;;;9.03;5.97;;;2.40;99.90;;;;;;10420848;28;20199;-78
2024/01/12 13:00:04;;;;;;;7.70;6.00;;;2.40;1.00;;;;;;10437625;28;20251;-78
2024/01/12 13:05:25;;;;;;;8.17;6.27;;;2.30;1.00;;;;;;10437195;28;20524;-78
2024/01/12 13:10:47;;;;;;;15.20;8.07;;;2.30;99.90;;;;;;10398998;28;20443;-79
2024/01/12 13:16:09;;;;;;;7.80;6.40;;;2.30;99.90;;;;;;10397271;28;20197;-79
2024/01/12 13:21:32;;;;;;;13.20;7.13;;;2.30;99.90;;;;;;10383812;28;20269;-78
2024/01/12 13:26:53;;;;;;;11.87;6.80;;;2.30;1.00;;;;;;10397279;28;20430;-78
2024/01/12 13:32:14;;;;;;;12.07;6.70;;;2.40;1.00;;;;;;10395172;28;20208;-78
2024/01/12 13:37:36;;;;;;;15.53;7.43;;;2.40;1.00;;;;;;10396934;28;20191;-82
2024/01/12 13:42:57;;;;;;;18.03;9.90;;;2.30;99.90;;;;;;10394808;28;20296;-78
2024/01/12 13:48:25;;;;;;;16.40;8.13;;;2.30;99.90;;;;;;10394584;28;20235;-77
2024/01/12 13:53:47;;;;;;;17.23;8.13;;;2.40;1.00;;;;;;10399342;28;20204;-81
2024/01/12 13:59:09;;;;;;;13.03;8.93;;;2.40;1.00;;;;;;10433460;28;20251;-84
2024/01/12 14:04:32;;;;;;;11.37;7.80;;;2.40;1.00;;;;;;10435315;28;20232;-77
2024/01/12 14:09:53;;;;;;;14.60;7.60;;;2.30;99.90;;;;;;10393109;28;20465;-82
2024/01/12 14:15:16;;;;;;;13.63;7.30;;;2.30;1.00;;;;;;10404261;28;20226;-82
2024/01/12 14:20:38;;;;;;;15.27;9.60;;;2.30;1.00;;;;;;10417436;28;20202;-85
2024/01/12 14:25:59;;;;;;;15.80;10.27;;;2.30;1.00;;;;;;10419759;28;20231;-81
2024/01/12 14:31:22;;;;;;;15.43;10.03;;;2.30;1.00;;;;;;10382483;28;20207;-83
2024/01/12 14:36:44;;;;;;;20.20;11.30;;;2.20;99.90;;;;;;10366287;28;20203;-82
2024/01/12 14:42:05;;;;;;;14.63;8.73;;;2.20;11.10;;;;;;10392875;28;20202;-79
2024/01/12 14:47:27;;;;;;;13.27;8.10;;;2.10;1.00;;;;;;10377627;28;20241;-78
2024/01/12 14:52:48;;;;;;;17.87;9.17;;;2.00;1.00;;;;;;10391892;28;20211;-79
2024/01/12 14:58:10;;;;;;;19.10;11.07;;;2.00;1.00;;;;;;10431056;28;20271;-79
2024/01/12 15:03:32;;;;;;;14.57;8.83;;;1.90;1.00;;;;;;10413511;28;20219;-80
2024/01/12 15:08:54;;;;;;;10.37;7.70;;;1.80;1.00;;;;;;10437303;28;20230;-82
2024/01/12 15:14:16;;;;;;;13.80;9.00;;;1.80;99.90;;;;;;10414369;28;20252;-79
2024/01/12 15:19:37;;;;;;;15.03;9.37;;;1.80;99.90;;;;;;10414371;28;20238;-80
2024/01/12 15:24:58;;;;;;;13.03;8.43;;;1.80;99.90;;;;;;10410605;28;20214;-79
2024/01/12 15:30:20;;;;;;;12.17;8.37;;;1.80;1.00;;;;;;10419606;28;20207;-82
2024/01/12 15:35:42;;;;;;;15.67;9.53;;;1.80;99.90;;;;;;10410329;28;20210;-80
2024/01/12 15:41:04;;;;;;;14.37;9.60;;;1.70;1.00;;;;;;10419908;28;20206;-79
2024/01/12 15:46:26;;;;;;;14.37;8.90;;;1.70;1.00;;;;;;10435124;28;20232;-82
2024/01/12 15:51:49;;;;;;;15.80;7.80;;;1.70;1.00;;;;;;10406299;28;20247;-78
2024/01/12 15:57:10;;;;;;;14.23;9.00;;;1.70;1.00;;;;;;10407938;28;20259;-78
2024/01/12 16:02:32;;;;;;;14.67;8.63;;;1.70;99.90;;;;;;10439757;28;20310;-87
2024/01/12 16:07:54;;;;;;;13.20;8.90;;;1.70;99.90;;;;;;10401433;28;20226;-82
2024/01/12 16:13:15;;;;;;;18.40;10.97;;;1.70;99.90;;;;;;10400241;28;20526;-85
2024/01/12 16:18:36;;;;;;;16.67;9.40;;;1.60;41.00;;;;;;10433091;28;20287;-85
2024/01/12 16:23:58;;;;;;;11.23;8.23;;;1.60;99.90;;;;;;10418398;28;20216;-86
2024/01/12 16:29:20;;;;;;;16.83;9.20;;;1.60;99.90;;;;;;10434417;28;20293;-79
2024/01/12 16:34:41;;;;;;;13.00;9.50;;;1.50;1.00;;;;;;10407137;28;20199;-80
2024/01/12 16:40:02;;;;;;;14.27;9.73;;;1.50;99.90;;;;;;10416026;28;20207;-86
2024/01/12 16:45:23;;;;;;;16.00;9.70;;;1.50;96.70;;;;;;10425800;28;20202;-81
2024/01/12 16:50:45;;;;;;;12.90;9.50;;;1.60;1.00;;;;;;10433651;28;20213;-79
2024/01/12 16:56:06;;;;;;;11.87;9.53;;;1.50;1.00;;;;;;10429223;28;20199;-78
2024/01/12 17:01:27;;;;;;;14.33;9.00;;;1.60;99.90;;;;;;10448803;28;20245;-79
2024/01/12 17:06:52;;;;;;;16.40;10.80;;;1.60;1.00;;;;;;10438773;28;20433;-85
2024/01/12 17:12:13;;;;;;;17.03;10.83;;;1.60;1.00;;;;;;10442272;28;20189;-79
2024/01/12 17:17:34;;;;;;;14.23;10.00;;;1.60;99.90;;;;;;10442957;28;20200;-79
2024/01/12 17:22:55;;;;;;;14.80;10.50;;;1.50;65.80;;;;;;10442361;28;20199;-79
2024/01/12 17:28:18;;;;;;;13.07;9.93;;;1.50;99.90;;;;;;10401900;28;20240;-79
2024/01/12 17:33:39;;;;;;;14.63;9.80;;;1.60;1.00;;;;;;10437099;28;20207;-81
2024/01/12 17:39:00;;;;;;;18.93;13.37;;;1.50;81.70;;;;;;10442646;28;20193;-83
2024/01/12 17:44:21;;;;;;;17.50;11.17;;;1.60;1.00;;;;;;10440583;28;20245;-79
2024/01/12 17:49:43;;;;;;;17.93;11.37;;;1.50;12.60;;;;;;10440764;28;20240;-83
2024/01/12 17:55:04;;;;;;;14.60;10.53;;;1.60;99.90;;;;;;10440535;28;20245;-79
2024/01/12 18:00:26;;;;;;;15.53;10.00;;;1.50;1.00;;;;;;10433261;28;20239;-80
2024/01/12 18:05:47;;;;;;;13.83;10.03;;;1.60;1.00;;;;;;10385830;28;20218;-79
2024/01/12 18:11:09;;;;;;;16.57;11.43;;;1.50;1.00;;;;;;10403141;28;20214;-79
2024/01/12 18:16:31;;;;;;;15.40;10.47;;;1.60;1.00;;;;;;10410453;28;20214;-79
2024/01/12 18:21:53;;;;;;;16.83;10.87;;;1.60;1.00;;;;;;10398758;28;20210;-79
2024/01/12 18:27:16;;;;;;;17.23;10.77;;;1.60;1.00;;;;;;10413367;28;20228;-79
2024/01/12 18:32:37;;;;;;;15.93;9.90;;;1.60;1.00;;;;;;10435477;28;20368;-79
2024/01/12 18:37:59;;;;;;;14.87;10.53;;;1.70;1.00;;;;;;10390608;28;20214;-80
2024/01/12 18:43:21;;;;;;;16.37;10.63;;;1.70;1.00;;;;;;10413033;28;20203;-82
2024/01/12 18:48:44;;;;;;;15.77;9.93;;;1.80;99.90;;;;;;10429839;28;20227;-80
2024/01/12 18:54:05;;;;;;;16.87;10.23;;;1.70;1.00;;;;;;10440154;28;20220;-82
2024/01/12 18:59:28;;;;;;;19.87;10.77;;;1.70;1.00;;;;;;10426633;28;20244;-79
2024/01/12 19:04:49;;;;;;;13.43;9.17;;;1.80;1.00;;;;;;10438340;28;20202;-85
2024/01/12 19:10:12;;;;;;;19.27;11.53;;;1.80;1.00;;;;;;10430085;28;20225;-82
2024/01/12 19:15:33;;;;;;;19.50;10.40;;;1.80;1.00;;;;;;10427685;28;20223;-79
2024/01/12 19:20:55;;;;;;;16.30;9.93;;;1.80;1.00;;;;;;10421558;28;20295;-79
2024/01/12 19:26:18;;;;;;;21.23;10.20;;;1.80;29.90;;;;;;10423799;28;20228;-79
2024/01/12 19:31:39;;;;;;;19.30;10.87;;;1.90;47.50;;;;;;10437706;28;20222;-81
2024/01/12 19:37:00;;;;;;;15.93;9.47;;;1.90;1.00;;;;;;10396109;28;20217;-79
2024/01/12 19:42:21;;;;;;;20.57;11.70;;;2.00;1.00;;;;;;10409667;28;20192;-79
2024/01/12 19:47:44;;;;;;;21.10;12.97;;;2.00;91.10;;;;;;10432149;28;20209;-78
2024/01/12 19:53:05;;;;;;;28.97;14.47;;;2.00;1.00;;;;;;10463883;28;20430;-79
2024/01/12 19:58:26;;;;;;;15.70;11.17;;;2.00;1.00;;;;;;10458334;28;20224;-82
2024/01/12 20:03:47;;;;;;;24.10;10.97;;;2.10;1.00;;;;;;10421426;28;20191;-79
2024/01/12 20:09:09;;;;;;;21.77;9.77;;;2.10;99.90;;;;;;10435319;28;20247;-81
2024/01/12 20:14:31;;;;;;;13.57;8.90;;;2.00;1.00;;;;;;10434207;28;20202;-81
2024/01/12 20:19:53;;;;;;;19.67;9.53;;;2.00;1.00;;;;;;10395887;28;20204;-81
2024/01/12 20:25:14;;;;;;;16.37;5.53;;;2.10;65.40;;;;;;10394843;28;20491;-80
2024/01/12 20:30:36;;;;;;;14.80;5.17;;;2.10;1.00;;;;;;10430807;28;20220;-80
2024/01/12 20:35:57;;;;;;;15.13;5.60;;;2.10;1.00;;;;;;10435930;28;20425;-81
2024/01/12 20:41:18;;;;;;;14.40;4.90;;;2.20;1.00;;;;;;10382600;28;20200;-84
2024/01/12 20:46:40;;;;;;;16.40;5.30;;;2.20;1.00;;;;;;10406655;28;20223;-79
2024/01/12 20:52:00;;;;;;;16.00;5.73;;;2.30;99.90;;;;;;10366664;28;20297;-79
2024/01/12 20:57:23;;;;;;;22.33;5.97;;;2.30;99.90;;;;;;10410128;28;20220;-84
2024/01/12 21:02:44;;;;;;;16.80;5.20;;;2.20;1.00;;;;;;10396340;28;20539;-81
2024/01/12 21:08:06;;;;;;;12.57;4.50;;;2.20;1.00;;;;;;10393882;28;20237;-82
2024/01/12 21:13:27;;;;;;;12.47;4.90;;;2.20;99.90;;;;;;10408060;28;20193;-80
2024/01/12 21:18:48;;;;;;;17.17;6.40;;;2.20;1.00;;;;;;10443253;28;20204;-79
2024/01/12 21:24:10;;;;;;;8.23;4.07;;;2.30;99.90;;;;;;10442150;28;20198;-83
2024/01/12 21:29:31;;;;;;;14.47;4.50;;;2.30;99.90;;;;;;10428762;28;20331;-79
2024/01/12 21:34:52;;;;;;;15.60;5.03;;;2.30;1.00;;;;;;10434177;28;20222;-83
2024/01/12 21:40:13;;;;;;;20.13;6.87;;;2.20;1.00;;;;;;10441632;28;20188;-82
2024/01/12 21:45:34;;;;;;;17.10;6.53;;;2.30;1.00;;;;;;10441373;28;20204;-84
2024/01/12 21:50:56;;;;;;;15.30;5.77;;;2.30;99.90;;;;;;10427607;28;20212;-81
2024/01/12 21:56:17;;;;;;;16.13;6.27;;;2.30;99.90;;;;;;10440928;28;20197;-80
2024/01/12 22:01:42;;;;;;;20.27;7.80;;;2.30;99.90;;;;;;10438635;28;20229;-80
2024/01/12 22:07:03;;;;;;;19.33;6.03;;;2.20;1.00;;;;;;10400329;28;20225;-81
2024/01/12 22:12:24;;;;;;;14.13;5.67;;;2.20;1.00;;;;;;10404987;28;20496;-81
2024/01/12 22:17:45;;;;;;;16.50;7.07;;;2.20;1.00;;;;;;10440265;28;20272;-79
2024/01/12 22:23:07;;;;;;;16.77;5.60;;;2.20;99.90;;;;;;10440672;28;20196;-80
2024/01/12 22:28:28;;;;;;;16.27;6.23;;;2.20;1.00;;;;;;10421299;28;20221;-84
2024/01/12 22:33:49;;;;;;;23.97;6.13;;;2.20;1.00;;;;;;10398682;28;20492;-79
2024/01/12 22:39:10;;;;;;;9.77;4.73;;;2.20;99.90;;;;;;10397971;28;20201;-78
2024/01/12 22:44:32;;;;;;;14.37;5.87;;;2.30;1.00;;;;;;10409664;28;20237;-83
2024/01/12 22:49:53;;;;;;;9.83;4.07;;;2.30;99.90;;;;;;10439295;28;20250;-80
2024/01/12 22:55:16;;;;;;;8.90;4.43;;;2.30;1.00;;;;;;10439039;28;20188;-80
2024/01/12 23:00:40;;;;;;;11.60;5.03;;;2.30;1.00;;;;;;10397014;28;20249;-84
2024/01/12 23:06:01;;;;;;;8.73;3.97;;;2.20;99.90;;;;;;10397213;28;20202;-79
2024/01/12 23:11:23;;;;;;;11.83;4.47;;;2.20;1.00;;;;;;10396867;28;20202;-80
2024/01/12 23:16:45;;;;;;;22.63;5.33;;;2.30;1.00;;;;;;10438313;28;20200;-83
2024/01/12 23:22:07;;;;;;;7.73;4.00;;;2.20;99.90;;;;;;10415019;28;20197;-79
2024/01/12 23:27:28;;;;;;;14.87;5.47;;;2.30;99.50;;;;;;10428714;28;20410;-84
2024/01/12 23:32:49;;;;;;;13.17;4.90;;;2.30;1.00;;;;;;10438832;28;20447;-80
2024/01/12 23:38:14;;;;;;;10.27;5.23;;;2.30;99.90;;;;;;10437174;28;20480;-82
2024/01/12 23:43:42;;;;;;;15.17;5.37;;;2.20;1.00;;;;;;10438200;28;20407;-83
2024/01/12 23:49:03;;;;;;;13.70;5.40;;;2.30;18.80;;;;;;10423175;28;20230;-84
2024/01/12 23:54:24;;;;;;;16.00;5.33;;;2.30;1.00;;;;;;10414080;28;20207;-80
2024/01/12 23:59:46;;;;;;;12.27;4.63;;;2.30;1.00;;;;;;10436714;28;20244;-85
